createdAt,value
2022-11-01T00:01:44.642Z,117.43
2022-11-01T00:32:01.239Z,110.70
2022-11-01T01:02:44.464Z,75.40
2022-11-01T01:32:51.474Z,91.03
2022-11-01T01:58:32.781Z,68.20
2022-11-01T02:28:31.014Z,58.40
2022-11-01T02:49:09.257Z,47.60
2022-11-01T03:14:36.887Z,104.13
2022-11-01T03:59:45.616Z,73.07
2022-11-01T04:25:35.443Z,77.30
2022-11-01T04:55:27.069Z,94.20
2022-11-01T05:20:47.890Z,87.07
2022-11-01T05:41:05.614Z,92.50
2022-11-01T06:01:58.901Z,117.73
2022-11-01T06:32:19.027Z,105.40
2022-11-01T07:02:33.285Z,90.07
2022-11-01T07:23:06.433Z,81.10
2022-11-01T07:48:27.927Z,75.67
2022-11-01T08:03:30.636Z,64.10
2022-11-01T08:43:38.043Z,58.37
2022-11-01T09:14:02.074Z,52.50
2022-11-01T09:49:22.437Z,43.07
2022-11-01T10:19:53.056Z,39.57
2022-11-01T10:50:19.839Z,40.93
2022-11-01T11:15:36.572Z,44.00
2022-11-01T11:41:00.721Z,45.50
2022-11-01T12:06:49.959Z,41.03
2022-11-01T12:27:06.860Z,41.33
2022-11-01T13:07:24.313Z,51.27
2022-11-01T13:28:07.537Z,55.30
2022-11-01T14:08:49.385Z,68.43
2022-11-01T14:39:07.102Z,64.17
2022-11-01T15:09:26.303Z,56.43
2022-11-01T16:10:33.764Z,59.53
2022-11-01T17:06:11.858Z,82.23
2022-11-01T17:31:26.318Z,103.13
2022-11-01T19:12:37.919Z,95.17
2022-11-01T19:43:35.914Z,88.57
2022-11-01T20:13:31.557Z,112.30
2022-11-01T20:44:04.190Z,98.93
2022-11-01T21:09:43.792Z,109.27
2022-11-01T21:19:48.821Z,111.33
2022-11-01T22:00:31.251Z,94.27
2022-11-01T22:45:37.379Z,72.93
2022-11-01T23:06:33.668Z,64.17
